sensor_id;sensor_type;location;lat;lon;timestamp;P1;durP1;ratioP1;P2;durP2;ratioP2
12511;SDS011;6321;53.798;10.382;2023-07-16T00:01:12;2.17;;;1.97;;
12511;SDS011;6321;53.798;10.382;2023-07-16T00:03:38;3.43;;;2.03;;
12511;SDS011;6321;53.798;10.382;2023-07-16T00:06:04;3.20;;;1.80;;
12511;SDS011;6321;53.798;10.382;2023-07-16T00:08:30;2.60;;;1.90;;
12511;SDS011;6321;53.798;10.382;2023-07-16T00:10:55;2.50;;;1.90;;
12511;SDS011;6321;53.798;10.382;2023-07-16T00:13:21;3.20;;;1.93;;
12511;SDS011;6321;53.798;10.382;2023-07-16T00:15:47;2.70;;;1.97;;
12511;SDS011;6321;53.798;10.382;2023-07-16T00:18:13;2.00;;;1.73;;
12511;SDS011;6321;53.798;10.382;2023-07-16T00:20:39;3.47;;;2.20;;
12511;SDS011;6321;53.798;10.382;2023-07-16T00:23:05;4.83;;;2.30;;
12511;SDS011;6321;53.798;10.382;2023-07-16T00:25:31;2.67;;;1.97;;
12511;SDS011;6321;53.798;10.382;2023-07-16T00:27:57;3.77;;;2.80;;
12511;SDS011;6321;53.798;10.382;2023-07-16T00:30:23;4.57;;;2.10;;
12511;SDS011;6321;53.798;10.382;2023-07-16T00:32:49;2.23;;;1.80;;
12511;SDS011;6321;53.798;10.382;2023-07-16T00:35:15;2.97;;;1.63;;
12511;SDS011;6321;53.798;10.382;2023-07-16T00:37:41;2.40;;;1.87;;
12511;SDS011;6321;53.798;10.382;2023-07-16T00:40:07;4.03;;;2.37;;
12511;SDS011;6321;53.798;10.382;2023-07-16T00:42:33;3.27;;;1.90;;
12511;SDS011;6321;53.798;10.382;2023-07-16T00:44:59;4.10;;;2.50;;
12511;SDS011;6321;53.798;10.382;2023-07-16T00:47:25;2.77;;;2.27;;
12511;SDS011;6321;53.798;10.382;2023-07-16T00:49:51;3.43;;;2.07;;
12511;SDS011;6321;53.798;10.382;2023-07-16T00:52:18;4.27;;;2.27;;
12511;SDS011;6321;53.798;10.382;2023-07-16T00:54:44;3.27;;;2.30;;
12511;SDS011;6321;53.798;10.382;2023-07-16T00:57:10;2.30;;;1.93;;
12511;SDS011;6321;53.798;10.382;2023-07-16T00:59:36;3.70;;;2.23;;
12511;SDS011;6321;53.798;10.382;2023-07-16T01:02:02;4.27;;;2.37;;
12511;SDS011;6321;53.798;10.382;2023-07-16T01:04:28;2.60;;;1.73;;
12511;SDS011;6321;53.798;10.382;2023-07-16T01:06:55;3.47;;;1.90;;
12511;SDS011;6321;53.798;10.382;2023-07-16T01:09:23;2.40;;;2.07;;
12511;SDS011;6321;53.798;10.382;2023-07-16T01:11:50;2.90;;;1.80;;
12511;SDS011;6321;53.798;10.382;2023-07-16T01:14:17;3.50;;;2.00;;
12511;SDS011;6321;53.798;10.382;2023-07-16T01:16:43;4.00;;;1.77;;
12511;SDS011;6321;53.798;10.382;2023-07-16T01:19:10;2.97;;;2.17;;
12511;SDS011;6321;53.798;10.382;2023-07-16T01:21:46;2.33;;;2.00;;
12511;SDS011;6321;53.798;10.382;2023-07-16T01:29:31;2.40;;;2.00;;
12511;SDS011;6321;53.798;10.382;2023-07-16T01:31:59;2.30;;;2.10;;
12511;SDS011;6321;53.798;10.382;2023-07-16T01:34:26;2.43;;;1.97;;
12511;SDS011;6321;53.798;10.382;2023-07-16T01:36:53;3.83;;;2.20;;
12511;SDS011;6321;53.798;10.382;2023-07-16T01:39:19;4.03;;;2.20;;
12511;SDS011;6321;53.798;10.382;2023-07-16T01:41:45;2.67;;;1.73;;
12511;SDS011;6321;53.798;10.382;2023-07-16T01:44:11;3.50;;;2.10;;
12511;SDS011;6321;53.798;10.382;2023-07-16T01:46:37;1.90;;;1.70;;
12511;SDS011;6321;53.798;10.382;2023-07-16T01:49:03;3.73;;;2.10;;
12511;SDS011;6321;53.798;10.382;2023-07-16T01:51:29;2.73;;;2.10;;
12511;SDS011;6321;53.798;10.382;2023-07-16T01:53:55;3.93;;;2.10;;
12511;SDS011;6321;53.798;10.382;2023-07-16T01:56:21;2.67;;;2.03;;
12511;SDS011;6321;53.798;10.382;2023-07-16T01:58:47;2.40;;;2.07;;
12511;SDS011;6321;53.798;10.382;2023-07-16T02:01:13;4.77;;;1.90;;
12511;SDS011;6321;53.798;10.382;2023-07-16T02:03:39;3.33;;;1.90;;
12511;SDS011;6321;53.798;10.382;2023-07-16T02:06:05;2.83;;;2.23;;
12511;SDS011;6321;53.798;10.382;2023-07-16T02:08:31;3.33;;;2.00;;
12511;SDS011;6321;53.798;10.382;2023-07-16T02:10:57;5.63;;;2.50;;
12511;SDS011;6321;53.798;10.382;2023-07-16T02:13:23;2.30;;;2.03;;
12511;SDS011;6321;53.798;10.382;2023-07-16T02:15:48;4.10;;;2.10;;
12511;SDS011;6321;53.798;10.382;2023-07-16T02:18:14;3.00;;;2.13;;
12511;SDS011;6321;53.798;10.382;2023-07-16T02:20:40;2.87;;;1.90;;
12511;SDS011;6321;53.798;10.382;2023-07-16T02:23:06;3.30;;;2.10;;
12511;SDS011;6321;53.798;10.382;2023-07-16T02:25:32;3.47;;;2.20;;
12511;SDS011;6321;53.798;10.382;2023-07-16T02:27:58;3.17;;;2.13;;
12511;SDS011;6321;53.798;10.382;2023-07-16T02:30:24;4.90;;;2.13;;
12511;SDS011;6321;53.798;10.382;2023-07-16T02:32:50;3.80;;;2.30;;
12511;SDS011;6321;53.798;10.382;2023-07-16T02:35:16;4.27;;;2.57;;
12511;SDS011;6321;53.798;10.382;2023-07-16T02:37:42;3.50;;;2.10;;
12511;SDS011;6321;53.798;10.382;2023-07-16T02:40:08;5.27;;;2.63;;
12511;SDS011;6321;53.798;10.382;2023-07-16T02:42:34;4.53;;;2.57;;
12511;SDS011;6321;53.798;10.382;2023-07-16T02:45:00;4.17;;;2.20;;
12511;SDS011;6321;53.798;10.382;2023-07-16T02:47:26;3.63;;;2.70;;
12511;SDS011;6321;53.798;10.382;2023-07-16T02:49:52;5.27;;;2.00;;
12511;SDS011;6321;53.798;10.382;2023-07-16T02:52:18;2.80;;;2.10;;
12511;SDS011;6321;53.798;10.382;2023-07-16T02:54:44;5.83;;;2.17;;
12511;SDS011;6321;53.798;10.382;2023-07-16T02:57:10;3.17;;;2.83;;
12511;SDS011;6321;53.798;10.382;2023-07-16T02:59:36;4.20;;;2.13;;
12511;SDS011;6321;53.798;10.382;2023-07-16T03:02:02;3.47;;;2.33;;
12511;SDS011;6321;53.798;10.382;2023-07-16T03:04:28;4.20;;;2.27;;
12511;SDS011;6321;53.798;10.382;2023-07-16T03:06:53;4.40;;;2.30;;
12511;SDS011;6321;53.798;10.382;2023-07-16T03:09:19;2.70;;;2.17;;
12511;SDS011;6321;53.798;10.382;2023-07-16T03:11:45;3.30;;;2.20;;
12511;SDS011;6321;53.798;10.382;2023-07-16T03:14:11;4.90;;;2.47;;
12511;SDS011;6321;53.798;10.382;2023-07-16T03:16:37;4.53;;;2.23;;
12511;SDS011;6321;53.798;10.382;2023-07-16T03:19:03;3.53;;;2.20;;
12511;SDS011;6321;53.798;10.382;2023-07-16T03:21:29;2.70;;;2.30;;
12511;SDS011;6321;53.798;10.382;2023-07-16T03:23:55;4.80;;;2.23;;
12511;SDS011;6321;53.798;10.382;2023-07-16T03:26:21;3.00;;;2.53;;
12511;SDS011;6321;53.798;10.382;2023-07-16T03:28:47;3.63;;;2.30;;
12511;SDS011;6321;53.798;10.382;2023-07-16T03:31:12;4.57;;;2.33;;
12511;SDS011;6321;53.798;10.382;2023-07-16T03:33:38;2.53;;;1.97;;
12511;SDS011;6321;53.798;10.382;2023-07-16T03:36:04;5.23;;;2.30;;
12511;SDS011;6321;53.798;10.382;2023-07-16T03:38:31;3.27;;;2.40;;
12511;SDS011;6321;53.798;10.382;2023-07-16T03:40:57;2.97;;;2.40;;
12511;SDS011;6321;53.798;10.382;2023-07-16T03:43:23;2.50;;;2.23;;
12511;SDS011;6321;53.798;10.382;2023-07-16T03:45:49;4.07;;;2.30;;
12511;SDS011;6321;53.798;10.382;2023-07-16T03:48:15;5.03;;;3.00;;
12511;SDS011;6321;53.798;10.382;2023-07-16T03:50:41;4.97;;;2.23;;
12511;SDS011;6321;53.798;10.382;2023-07-16T03:53:07;3.97;;;2.20;;
12511;SDS011;6321;53.798;10.382;2023-07-16T03:55:33;2.87;;;2.10;;
12511;SDS011;6321;53.798;10.382;2023-07-16T03:57:58;2.67;;;2.47;;
12511;SDS011;6321;53.798;10.382;2023-07-16T04:00:24;2.43;;;2.23;;
12511;SDS011;6321;53.798;10.382;2023-07-16T04:02:50;5.90;;;2.47;;
12511;SDS011;6321;53.798;10.382;2023-07-16T04:05:16;2.47;;;2.10;;
12511;SDS011;6321;53.798;10.382;2023-07-16T04:07:42;2.77;;;2.40;;
12511;SDS011;6321;53.798;10.382;2023-07-16T04:10:08;3.20;;;2.37;;
12511;SDS011;6321;53.798;10.382;2023-07-16T04:12:34;4.50;;;2.30;;
12511;SDS011;6321;53.798;10.382;2023-07-16T04:15:00;4.17;;;2.20;;
12511;SDS011;6321;53.798;10.382;2023-07-16T04:17:26;2.67;;;2.10;;
12511;SDS011;6321;53.798;10.382;2023-07-16T04:19:52;2.83;;;2.30;;
12511;SDS011;6321;53.798;10.382;2023-07-16T04:22:18;4.70;;;2.30;;
12511;SDS011;6321;53.798;10.382;2023-07-16T04:24:44;4.47;;;2.63;;
12511;SDS011;6321;53.798;10.382;2023-07-16T04:27:10;2.40;;;2.00;;
12511;SDS011;6321;53.798;10.382;2023-07-16T04:29:36;3.73;;;2.20;;
12511;SDS011;6321;53.798;10.382;2023-07-16T04:32:02;4.13;;;2.40;;
12511;SDS011;6321;53.798;10.382;2023-07-16T04:34:28;2.77;;;2.47;;
12511;SDS011;6321;53.798;10.382;2023-07-16T04:36:54;5.23;;;2.10;;
12511;SDS011;6321;53.798;10.382;2023-07-16T04:39:20;2.83;;;2.50;;
12511;SDS011;6321;53.798;10.382;2023-07-16T04:41:46;3.63;;;2.03;;
12511;SDS011;6321;53.798;10.382;2023-07-16T04:44:12;2.60;;;2.40;;
12511;SDS011;6321;53.798;10.382;2023-07-16T04:46:38;4.57;;;2.40;;
12511;SDS011;6321;53.798;10.382;2023-07-16T04:49:04;3.73;;;2.33;;
12511;SDS011;6321;53.798;10.382;2023-07-16T04:51:31;3.70;;;2.60;;
12511;SDS011;6321;53.798;10.382;2023-07-16T04:53:57;3.30;;;2.30;;
12511;SDS011;6321;53.798;10.382;2023-07-16T04:56:23;5.23;;;2.40;;
12511;SDS011;6321;53.798;10.382;2023-07-16T04:58:49;3.87;;;2.50;;
12511;SDS011;6321;53.798;10.382;2023-07-16T05:01:14;4.17;;;2.57;;
12511;SDS011;6321;53.798;10.382;2023-07-16T05:03:40;4.30;;;2.70;;
12511;SDS011;6321;53.798;10.382;2023-07-16T05:06:06;4.17;;;2.40;;
12511;SDS011;6321;53.798;10.382;2023-07-16T05:08:32;3.83;;;2.37;;
12511;SDS011;6321;53.798;10.382;2023-07-16T05:10:58;5.13;;;2.53;;
12511;SDS011;6321;53.798;10.382;2023-07-16T05:13:24;6.20;;;2.57;;
12511;SDS011;6321;53.798;10.382;2023-07-16T05:15:50;3.67;;;2.80;;
12511;SDS011;6321;53.798;10.382;2023-07-16T05:18:16;2.77;;;2.50;;
12511;SDS011;6321;53.798;10.382;2023-07-16T05:20:42;2.83;;;2.40;;
12511;SDS011;6321;53.798;10.382;2023-07-16T05:23:09;3.17;;;2.20;;
12511;SDS011;6321;53.798;10.382;2023-07-16T05:25:35;4.13;;;2.40;;
12511;SDS011;6321;53.798;10.382;2023-07-16T05:28:01;3.70;;;2.40;;
12511;SDS011;6321;53.798;10.382;2023-07-16T05:30:27;4.30;;;2.60;;
12511;SDS011;6321;53.798;10.382;2023-07-16T05:32:53;3.50;;;2.70;;
12511;SDS011;6321;53.798;10.382;2023-07-16T05:35:19;4.73;;;2.30;;
12511;SDS011;6321;53.798;10.382;2023-07-16T05:37:45;4.60;;;2.17;;
12511;SDS011;6321;53.798;10.382;2023-07-16T05:40:11;3.17;;;2.23;;
12511;SDS011;6321;53.798;10.382;2023-07-16T05:42:37;5.87;;;2.63;;
12511;SDS011;6321;53.798;10.382;2023-07-16T05:45:03;3.50;;;2.50;;
12511;SDS011;6321;53.798;10.382;2023-07-16T05:47:29;4.40;;;2.60;;
12511;SDS011;6321;53.798;10.382;2023-07-16T05:49:55;5.17;;;2.80;;
12511;SDS011;6321;53.798;10.382;2023-07-16T05:52:21;3.30;;;2.40;;
12511;SDS011;6321;53.798;10.382;2023-07-16T05:54:47;3.97;;;2.37;;
12511;SDS011;6321;53.798;10.382;2023-07-16T05:57:12;4.30;;;2.50;;
12511;SDS011;6321;53.798;10.382;2023-07-16T05:59:38;2.63;;;2.43;;
12511;SDS011;6321;53.798;10.382;2023-07-16T06:02:04;4.83;;;2.53;;
12511;SDS011;6321;53.798;10.382;2023-07-16T06:04:30;3.20;;;2.33;;
12511;SDS011;6321;53.798;10.382;2023-07-16T06:06:56;4.80;;;2.50;;
12511;SDS011;6321;53.798;10.382;2023-07-16T06:09:23;2.70;;;2.40;;
12511;SDS011;6321;53.798;10.382;2023-07-16T06:11:49;4.63;;;2.53;;
12511;SDS011;6321;53.798;10.382;2023-07-16T06:14:15;3.40;;;2.53;;
12511;SDS011;6321;53.798;10.382;2023-07-16T06:16:41;5.33;;;2.30;;
12511;SDS011;6321;53.798;10.382;2023-07-16T06:19:07;3.53;;;2.57;;
12511;SDS011;6321;53.798;10.382;2023-07-16T06:21:33;6.00;;;2.67;;
12511;SDS011;6321;53.798;10.382;2023-07-16T06:23:59;3.30;;;2.23;;
12511;SDS011;6321;53.798;10.382;2023-07-16T06:26:25;3.37;;;2.37;;
12511;SDS011;6321;53.798;10.382;2023-07-16T06:28:50;3.83;;;2.57;;
12511;SDS011;6321;53.798;10.382;2023-07-16T06:31:17;4.57;;;2.70;;
12511;SDS011;6321;53.798;10.382;2023-07-16T06:33:43;5.50;;;3.00;;
12511;SDS011;6321;53.798;10.382;2023-07-16T06:36:11;4.97;;;2.67;;
12511;SDS011;6321;53.798;10.382;2023-07-16T06:38:37;4.20;;;2.50;;
12511;SDS011;6321;53.798;10.382;2023-07-16T06:41:03;4.70;;;2.43;;
12511;SDS011;6321;53.798;10.382;2023-07-16T06:43:29;3.93;;;2.63;;
12511;SDS011;6321;53.798;10.382;2023-07-16T06:45:55;3.40;;;2.57;;
12511;SDS011;6321;53.798;10.382;2023-07-16T06:48:21;4.57;;;2.67;;
12511;SDS011;6321;53.798;10.382;2023-07-16T06:50:47;6.60;;;2.67;;
12511;SDS011;6321;53.798;10.382;2023-07-16T06:53:12;4.03;;;2.70;;
12511;SDS011;6321;53.798;10.382;2023-07-16T06:55:38;7.27;;;3.20;;
12511;SDS011;6321;53.798;10.382;2023-07-16T06:58:04;6.30;;;2.70;;
12511;SDS011;6321;53.798;10.382;2023-07-16T07:00:30;6.73;;;3.03;;
12511;SDS011;6321;53.798;10.382;2023-07-16T07:02:57;4.57;;;2.83;;
12511;SDS011;6321;53.798;10.382;2023-07-16T07:05:23;6.23;;;2.23;;
12511;SDS011;6321;53.798;10.382;2023-07-16T07:07:49;4.30;;;2.43;;
12511;SDS011;6321;53.798;10.382;2023-07-16T07:10:15;5.20;;;2.80;;
12511;SDS011;6321;53.798;10.382;2023-07-16T07:12:41;7.03;;;3.20;;
12511;SDS011;6321;53.798;10.382;2023-07-16T07:15:07;4.60;;;2.80;;
12511;SDS011;6321;53.798;10.382;2023-07-16T07:17:33;6.77;;;2.90;;
12511;SDS011;6321;53.798;10.382;2023-07-16T07:20:00;6.63;;;3.27;;
12511;SDS011;6321;53.798;10.382;2023-07-16T07:22:25;4.70;;;3.00;;
12511;SDS011;6321;53.798;10.382;2023-07-16T07:24:51;5.57;;;2.97;;
12511;SDS011;6321;53.798;10.382;2023-07-16T07:27:17;7.27;;;3.20;;
12511;SDS011;6321;53.798;10.382;2023-07-16T07:29:43;5.73;;;2.97;;
12511;SDS011;6321;53.798;10.382;2023-07-16T07:32:11;4.43;;;3.00;;
12511;SDS011;6321;53.798;10.382;2023-07-16T07:34:38;5.73;;;2.90;;
12511;SDS011;6321;53.798;10.382;2023-07-16T07:37:04;8.63;;;3.67;;
12511;SDS011;6321;53.798;10.382;2023-07-16T07:39:30;5.07;;;3.13;;
12511;SDS011;6321;53.798;10.382;2023-07-16T07:41:56;6.30;;;3.23;;
12511;SDS011;6321;53.798;10.382;2023-07-16T07:44:22;11.87;;;3.40;;
12511;SDS011;6321;53.798;10.382;2023-07-16T07:46:48;5.47;;;3.17;;
12511;SDS011;6321;53.798;10.382;2023-07-16T07:49:14;9.97;;;3.30;;
12511;SDS011;6321;53.798;10.382;2023-07-16T07:51:40;9.03;;;3.50;;
12511;SDS011;6321;53.798;10.382;2023-07-16T07:54:05;6.60;;;3.07;;
12511;SDS011;6321;53.798;10.382;2023-07-16T07:56:31;4.90;;;3.17;;
12511;SDS011;6321;53.798;10.382;2023-07-16T07:58:57;6.13;;;3.40;;
12511;SDS011;6321;53.798;10.382;2023-07-16T08:01:23;6.67;;;3.07;;
12511;SDS011;6321;53.798;10.382;2023-07-16T08:03:49;5.63;;;3.20;;
12511;SDS011;6321;53.798;10.382;2023-07-16T08:06:15;4.17;;;2.97;;
12511;SDS011;6321;53.798;10.382;2023-07-16T08:08:41;5.37;;;2.93;;
12511;SDS011;6321;53.798;10.382;2023-07-16T08:11:07;5.83;;;2.97;;
12511;SDS011;6321;53.798;10.382;2023-07-16T08:13:33;5.00;;;2.97;;
12511;SDS011;6321;53.798;10.382;2023-07-16T08:15:59;4.47;;;2.80;;
12511;SDS011;6321;53.798;10.382;2023-07-16T08:18:25;8.70;;;3.50;;
12511;SDS011;6321;53.798;10.382;2023-07-16T08:20:51;5.67;;;3.03;;
12511;SDS011;6321;53.798;10.382;2023-07-16T08:23:17;3.53;;;2.50;;
12511;SDS011;6321;53.798;10.382;2023-07-16T08:25:43;9.77;;;3.10;;
12511;SDS011;6321;53.798;10.382;2023-07-16T08:28:09;4.70;;;2.80;;
12511;SDS011;6321;53.798;10.382;2023-07-16T08:30:36;3.67;;;3.10;;
12511;SDS011;6321;53.798;10.382;2023-07-16T08:33:02;9.97;;;3.40;;
12511;SDS011;6321;53.798;10.382;2023-07-16T08:35:28;4.77;;;3.00;;
12511;SDS011;6321;53.798;10.382;2023-07-16T08:37:54;8.30;;;3.30;;
12511;SDS011;6321;53.798;10.382;2023-07-16T08:40:20;5.50;;;2.67;;
12511;SDS011;6321;53.798;10.382;2023-07-16T08:42:46;5.77;;;2.70;;
12511;SDS011;6321;53.798;10.382;2023-07-16T08:45:13;4.20;;;3.00;;
12511;SDS011;6321;53.798;10.382;2023-07-16T08:47:41;7.60;;;2.50;;
12511;SDS011;6321;53.798;10.382;2023-07-16T08:50:07;6.00;;;2.70;;
12511;SDS011;6321;53.798;10.382;2023-07-16T08:52:33;4.33;;;3.07;;
12511;SDS011;6321;53.798;10.382;2023-07-16T08:54:59;4.60;;;2.60;;
12511;SDS011;6321;53.798;10.382;2023-07-16T08:57:25;8.63;;;3.10;;
12511;SDS011;6321;53.798;10.382;2023-07-16T08:59:51;4.90;;;2.70;;
12511;SDS011;6321;53.798;10.382;2023-07-16T09:02:17;6.80;;;3.10;;
12511;SDS011;6321;53.798;10.382;2023-07-16T09:04:44;4.13;;;3.10;;
12511;SDS011;6321;53.798;10.382;2023-07-16T09:07:10;5.10;;;2.90;;
12511;SDS011;6321;53.798;10.382;2023-07-16T09:09:35;6.50;;;2.80;;
12511;SDS011;6321;53.798;10.382;2023-07-16T09:12:02;3.87;;;2.83;;
12511;SDS011;6321;53.798;10.382;2023-07-16T09:14:27;5.00;;;2.97;;
12511;SDS011;6321;53.798;10.382;2023-07-16T09:16:53;4.67;;;2.80;;
12511;SDS011;6321;53.798;10.382;2023-07-16T09:19:20;7.07;;;2.80;;
12511;SDS011;6321;53.798;10.382;2023-07-16T09:21:47;5.97;;;2.80;;
12511;SDS011;6321;53.798;10.382;2023-07-16T09:24:13;5.07;;;3.10;;
12511;SDS011;6321;53.798;10.382;2023-07-16T09:26:46;3.97;;;2.77;;
12511;SDS011;6321;53.798;10.382;2023-07-16T09:29:12;5.50;;;3.03;;
12511;SDS011;6321;53.798;10.382;2023-07-16T09:31:50;4.43;;;3.30;;
12511;SDS011;6321;53.798;10.382;2023-07-16T09:34:16;3.40;;;3.10;;
12511;SDS011;6321;53.798;10.382;2023-07-16T09:36:42;3.40;;;2.80;;
12511;SDS011;6321;53.798;10.382;2023-07-16T09:39:08;5.33;;;3.77;;
12511;SDS011;6321;53.798;10.382;2023-07-16T09:41:34;4.33;;;3.80;;
12511;SDS011;6321;53.798;10.382;2023-07-16T09:44:03;5.40;;;3.80;;
12511;SDS011;6321;53.798;10.382;2023-07-16T09:46:29;6.83;;;3.53;;
12511;SDS011;6321;53.798;10.382;2023-07-16T09:48:55;4.27;;;3.50;;
12511;SDS011;6321;53.798;10.382;2023-07-16T09:51:21;4.80;;;3.70;;
12511;SDS011;6321;53.798;10.382;2023-07-16T09:53:47;5.63;;;3.93;;
12511;SDS011;6321;53.798;10.382;2023-07-16T09:56:14;5.20;;;4.10;;
12511;SDS011;6321;53.798;10.382;2023-07-16T09:58:41;7.93;;;3.83;;
12511;SDS011;6321;53.798;10.382;2023-07-16T10:01:07;3.97;;;3.57;;
12511;SDS011;6321;53.798;10.382;2023-07-16T10:03:34;4.93;;;4.03;;
12511;SDS011;6321;53.798;10.382;2023-07-16T10:06:06;6.30;;;4.27;;
12511;SDS011;6321;53.798;10.382;2023-07-16T10:08:33;5.30;;;3.80;;
12511;SDS011;6321;53.798;10.382;2023-07-16T10:11:00;7.00;;;3.70;;
12511;SDS011;6321;53.798;10.382;2023-07-16T10:13:26;3.70;;;3.40;;
12511;SDS011;6321;53.798;10.382;2023-07-16T10:15:53;7.63;;;3.87;;
12511;SDS011;6321;53.798;10.382;2023-07-16T10:18:25;4.60;;;3.80;;
12511;SDS011;6321;53.798;10.382;2023-07-16T10:20:52;4.63;;;4.20;;
12511;SDS011;6321;53.798;10.382;2023-07-16T10:23:18;6.37;;;4.23;;
12511;SDS011;6321;53.798;10.382;2023-07-16T10:25:57;5.90;;;4.13;;
12511;SDS011;6321;53.798;10.382;2023-07-16T10:28:23;6.37;;;4.40;;
12511;SDS011;6321;53.798;10.382;2023-07-16T10:30:49;5.60;;;4.43;;
12511;SDS011;6321;53.798;10.382;2023-07-16T10:33:16;4.37;;;3.93;;
12511;SDS011;6321;53.798;10.382;2023-07-16T10:35:46;6.93;;;3.50;;
12511;SDS011;6321;53.798;10.382;2023-07-16T10:38:12;6.30;;;3.63;;
12511;SDS011;6321;53.798;10.382;2023-07-16T10:40:42;6.07;;;3.93;;
12511;SDS011;6321;53.798;10.382;2023-07-16T10:43:08;9.13;;;4.07;;
12511;SDS011;6321;53.798;10.382;2023-07-16T10:45:34;7.30;;;4.43;;
12511;SDS011;6321;53.798;10.382;2023-07-16T10:48:00;8.23;;;4.40;;
12511;SDS011;6321;53.798;10.382;2023-07-16T10:50:26;7.03;;;3.93;;
12511;SDS011;6321;53.798;10.382;2023-07-16T10:52:53;7.70;;;3.70;;
12511;SDS011;6321;53.798;10.382;2023-07-16T10:55:19;4.40;;;3.60;;
12511;SDS011;6321;53.798;10.382;2023-07-16T10:57:48;4.97;;;3.50;;
12511;SDS011;6321;53.798;10.382;2023-07-16T11:00:15;5.03;;;3.30;;
12511;SDS011;6321;53.798;10.382;2023-07-16T11:02:41;5.83;;;4.07;;
12511;SDS011;6321;53.798;10.382;2023-07-16T11:05:11;7.07;;;4.07;;
12511;SDS011;6321;53.798;10.382;2023-07-16T11:07:37;5.97;;;3.70;;
12511;SDS011;6321;53.798;10.382;2023-07-16T11:10:04;4.30;;;3.67;;
12511;SDS011;6321;53.798;10.382;2023-07-16T11:12:30;5.97;;;3.80;;
12511;SDS011;6321;53.798;10.382;2023-07-16T11:14:56;4.90;;;3.50;;
12511;SDS011;6321;53.798;10.382;2023-07-16T11:17:22;5.43;;;4.07;;
12511;SDS011;6321;53.798;10.382;2023-07-16T11:19:50;5.37;;;3.60;;
12511;SDS011;6321;53.798;10.382;2023-07-16T11:22:16;4.67;;;3.57;;
12511;SDS011;6321;53.798;10.382;2023-07-16T11:24:46;5.63;;;3.00;;
12511;SDS011;6321;53.798;10.382;2023-07-16T11:29:39;7.00;;;3.73;;
12511;SDS011;6321;53.798;10.382;2023-07-16T11:32:07;5.63;;;3.73;;
12511;SDS011;6321;53.798;10.382;2023-07-16T11:34:33;5.63;;;3.70;;
12511;SDS011;6321;53.798;10.382;2023-07-16T11:37:10;4.13;;;3.27;;
12511;SDS011;6321;53.798;10.382;2023-07-16T11:39:36;5.10;;;3.73;;
12511;SDS011;6321;53.798;10.382;2023-07-16T11:42:03;4.83;;;3.60;;
12511;SDS011;6321;53.798;10.382;2023-07-16T11:44:32;7.50;;;3.93;;
12511;SDS011;6321;53.798;10.382;2023-07-16T11:46:59;6.57;;;4.10;;
12511;SDS011;6321;53.798;10.382;2023-07-16T11:49:25;4.40;;;3.63;;
12511;SDS011;6321;53.798;10.382;2023-07-16T11:51:50;4.57;;;4.13;;
12511;SDS011;6321;53.798;10.382;2023-07-16T11:54:16;4.77;;;3.70;;
12511;SDS011;6321;53.798;10.382;2023-07-16T11:56:42;5.23;;;4.00;;
12511;SDS011;6321;53.798;10.382;2023-07-16T11:59:08;4.13;;;3.63;;
12511;SDS011;6321;53.798;10.382;2023-07-16T12:01:34;6.90;;;4.00;;
12511;SDS011;6321;53.798;10.382;2023-07-16T12:04:00;5.90;;;3.33;;
12511;SDS011;6321;53.798;10.382;2023-07-16T12:06:26;6.23;;;4.20;;
12511;SDS011;6321;53.798;10.382;2023-07-16T12:08:52;5.33;;;3.70;;
12511;SDS011;6321;53.798;10.382;2023-07-16T12:11:20;8.73;;;4.13;;
12511;SDS011;6321;53.798;10.382;2023-07-16T12:13:46;5.10;;;3.30;;
12511;SDS011;6321;53.798;10.382;2023-07-16T12:16:11;3.83;;;3.43;;
12511;SDS011;6321;53.798;10.382;2023-07-16T12:18:37;5.90;;;3.63;;
12511;SDS011;6321;53.798;10.382;2023-07-16T12:21:03;4.60;;;3.90;;
12511;SDS011;6321;53.798;10.382;2023-07-16T12:23:31;6.70;;;2.90;;
12511;SDS011;6321;53.798;10.382;2023-07-16T12:25:57;4.60;;;3.60;;
12511;SDS011;6321;53.798;10.382;2023-07-16T12:28:22;4.03;;;3.40;;
12511;SDS011;6321;53.798;10.382;2023-07-16T12:30:48;6.57;;;3.00;;
12511;SDS011;6321;53.798;10.382;2023-07-16T12:33:14;6.33;;;3.30;;
12511;SDS011;6321;53.798;10.382;2023-07-16T12:35:40;6.50;;;3.17;;
12511;SDS011;6321;53.798;10.382;2023-07-16T12:38:06;5.87;;;3.33;;
12511;SDS011;6321;53.798;10.382;2023-07-16T12:40:32;5.10;;;3.83;;
12511;SDS011;6321;53.798;10.382;2023-07-16T12:43:04;5.10;;;2.90;;
12511;SDS011;6321;53.798;10.382;2023-07-16T12:45:30;3.70;;;3.17;;
12511;SDS011;6321;53.798;10.382;2023-07-16T12:47:56;4.47;;;3.43;;
12511;SDS011;6321;53.798;10.382;2023-07-16T12:50:23;3.97;;;3.30;;
12511;SDS011;6321;53.798;10.382;2023-07-16T12:52:50;3.90;;;3.20;;
12511;SDS011;6321;53.798;10.382;2023-07-16T12:55:16;6.20;;;3.17;;
12511;SDS011;6321;53.798;10.382;2023-07-16T12:57:42;3.67;;;3.20;;
12511;SDS011;6321;53.798;10.382;2023-07-16T13:00:08;3.77;;;3.27;;
12511;SDS011;6321;53.798;10.382;2023-07-16T13:02:35;5.87;;;3.40;;
12511;SDS011;6321;53.798;10.382;2023-07-16T13:05:01;4.53;;;3.50;;
12511;SDS011;6321;53.798;10.382;2023-07-16T13:07:27;4.83;;;2.67;;
12511;SDS011;6321;53.798;10.382;2023-07-16T13:09:53;9.67;;;3.03;;
12511;SDS011;6321;53.798;10.382;2023-07-16T13:12:19;4.10;;;3.40;;
12511;SDS011;6321;53.798;10.382;2023-07-16T13:14:45;4.07;;;3.20;;
12511;SDS011;6321;53.798;10.382;2023-07-16T13:17:11;6.50;;;3.33;;
12511;SDS011;6321;53.798;10.382;2023-07-16T13:19:37;4.33;;;2.83;;
12511;SDS011;6321;53.798;10.382;2023-07-16T13:22:03;7.47;;;3.57;;
12511;SDS011;6321;53.798;10.382;2023-07-16T13:24:29;4.60;;;3.17;;
12511;SDS011;6321;53.798;10.382;2023-07-16T13:26:55;4.23;;;3.03;;
12511;SDS011;6321;53.798;10.382;2023-07-16T13:29:21;4.27;;;3.13;;
12511;SDS011;6321;53.798;10.382;2023-07-16T13:31:47;4.47;;;3.00;;
12511;SDS011;6321;53.798;10.382;2023-07-16T13:34:13;4.03;;;3.03;;
12511;SDS011;6321;53.798;10.382;2023-07-16T13:36:39;5.10;;;3.20;;
12511;SDS011;6321;53.798;10.382;2023-07-16T13:39:05;4.20;;;2.70;;
12511;SDS011;6321;53.798;10.382;2023-07-16T13:43:57;7.50;;;2.90;;
12511;SDS011;6321;53.798;10.382;2023-07-16T13:46:23;3.80;;;2.90;;
12511;SDS011;6321;53.798;10.382;2023-07-16T13:48:49;3.87;;;3.03;;
12511;SDS011;6321;53.798;10.382;2023-07-16T13:51:15;4.17;;;3.03;;
12511;SDS011;6321;53.798;10.382;2023-07-16T13:53:41;5.17;;;3.40;;
12511;SDS011;6321;53.798;10.382;2023-07-16T13:56:09;4.30;;;3.23;;
12511;SDS011;6321;53.798;10.382;2023-07-16T13:58:35;5.13;;;3.07;;
12511;SDS011;6321;53.798;10.382;2023-07-16T14:01:01;4.73;;;2.97;;
12511;SDS011;6321;53.798;10.382;2023-07-16T14:03:27;3.77;;;2.80;;
12511;SDS011;6321;53.798;10.382;2023-07-16T14:05:53;4.10;;;2.77;;
12511;SDS011;6321;53.798;10.382;2023-07-16T14:08:19;5.13;;;3.30;;
12511;SDS011;6321;53.798;10.382;2023-07-16T14:10:45;5.63;;;3.40;;
12511;SDS011;6321;53.798;10.382;2023-07-16T14:13:11;4.87;;;3.00;;
12511;SDS011;6321;53.798;10.382;2023-07-16T14:15:37;3.70;;;2.67;;
12511;SDS011;6321;53.798;10.382;2023-07-16T14:18:03;3.73;;;2.93;;
12511;SDS011;6321;53.798;10.382;2023-07-16T14:20:29;4.17;;;3.00;;
12511;SDS011;6321;53.798;10.382;2023-07-16T14:22:55;6.47;;;2.90;;
12511;SDS011;6321;53.798;10.382;2023-07-16T14:25:21;4.00;;;3.00;;
12511;SDS011;6321;53.798;10.382;2023-07-16T14:27:47;5.63;;;2.90;;
12511;SDS011;6321;53.798;10.382;2023-07-16T14:30:13;7.90;;;3.50;;
12511;SDS011;6321;53.798;10.382;2023-07-16T14:32:40;3.23;;;2.90;;
12511;SDS011;6321;53.798;10.382;2023-07-16T14:35:08;4.83;;;2.90;;
12511;SDS011;6321;53.798;10.382;2023-07-16T14:37:34;6.47;;;2.93;;
12511;SDS011;6321;53.798;10.382;2023-07-16T14:40:00;4.50;;;2.77;;
12511;SDS011;6321;53.798;10.382;2023-07-16T14:42:25;4.43;;;3.00;;
12511;SDS011;6321;53.798;10.382;2023-07-16T14:44:51;4.97;;;3.47;;
12511;SDS011;6321;53.798;10.382;2023-07-16T14:47:17;3.63;;;3.20;;
12511;SDS011;6321;53.798;10.382;2023-07-16T14:49:43;3.83;;;2.80;;
12511;SDS011;6321;53.798;10.382;2023-07-16T14:52:09;4.13;;;2.93;;